Lavras, Brazil
Current Conditions -  °F | °C
As of 11:00 AM on Friday 24 Oct 2014 (Local Time) from SBBQ Reporting Station
Few Clouds Few Clouds  
Wind Chill: 75°   Ceiling: Unl
Heat Index: 75°   Visibility: 6mi
Dew Point: 57°   Wind: 5mph
Humidity: 53%   Direction: 360°N
Pressure: 30.21"   Gusts: NA
Location:  21.25°S, 45°W
Report Text: SBBQ 241300Z 36004KT 9999 FEW030 24/14 Q1023
Loading
Personal Weather Stations






























Interactive Weather Map
Tropical Storm Tracking
New forecast layout! Learn more

10-Day Weather Forecast

Advertisements
Track Severe Weather on mobile